sensor_id;sensor_type;location;lat;lon;timestamp;P1;P2;P0
75946;PMS5003;64628;50.104;14.614;2023-06-22T00:00:53;13;12;
75946;PMS5003;64628;50.104;14.614;2023-06-22T00:03:19;11;11;
75946;PMS5003;64628;50.104;14.614;2023-06-22T00:05:43;14;13;
75946;PMS5003;64628;50.104;14.614;2023-06-22T00:08:09;16;15;
75946;PMS5003;64628;50.104;14.614;2023-06-22T00:10:34;16;16;
75946;PMS5003;64628;50.104;14.614;2023-06-22T00:13:00;19;15;
75946;PMS5003;64628;50.104;14.614;2023-06-22T00:15:25;13;13;
75946;PMS5003;64628;50.104;14.614;2023-06-22T00:17:50;12;12;
75946;PMS5003;64628;50.104;14.614;2023-06-22T00:20:15;15;13;
75946;PMS5003;64628;50.104;14.614;2023-06-22T00:22:40;14;13;
75946;PMS5003;64628;50.104;14.614;2023-06-22T00:25:06;16;16;
75946;PMS5003;64628;50.104;14.614;2023-06-22T00:27:32;15;13;
75946;PMS5003;64628;50.104;14.614;2023-06-22T00:29:57;13;12;
75946;PMS5003;64628;50.104;14.614;2023-06-22T00:32:22;13;12;
75946;PMS5003;64628;50.104;14.614;2023-06-22T00:34:48;17;15;
75946;PMS5003;64628;50.104;14.614;2023-06-22T00:37:13;16;15;
75946;PMS5003;64628;50.104;14.614;2023-06-22T00:39:38;14;13;
75946;PMS5003;64628;50.104;14.614;2023-06-22T00:42:03;15;14;
75946;PMS5003;64628;50.104;14.614;2023-06-22T00:44:28;14;13;
75946;PMS5003;64628;50.104;14.614;2023-06-22T00:46:54;19;18;
75946;PMS5003;64628;50.104;14.614;2023-06-22T00:49:20;16;13;
75946;PMS5003;64628;50.104;14.614;2023-06-22T00:51:45;19;18;
75946;PMS5003;64628;50.104;14.614;2023-06-22T00:54:11;18;15;
75946;PMS5003;64628;50.104;14.614;2023-06-22T00:56:36;15;13;
75946;PMS5003;64628;50.104;14.614;2023-06-22T00:59:01;12;12;
75946;PMS5003;64628;50.104;14.614;2023-06-22T01:01:26;15;14;
75946;PMS5003;64628;50.104;14.614;2023-06-22T01:03:51;17;15;
75946;PMS5003;64628;50.104;14.614;2023-06-22T01:06:18;11;11;
75946;PMS5003;64628;50.104;14.614;2023-06-22T01:08:42;14;13;
75946;PMS5003;64628;50.104;14.614;2023-06-22T01:11:07;10;10;
75946;PMS5003;64628;50.104;14.614;2023-06-22T01:13:34;16;12;
75946;PMS5003;64628;50.104;14.614;2023-06-22T01:15:58;13;12;
75946;PMS5003;64628;50.104;14.614;2023-06-22T01:18:22;14;13;
75946;PMS5003;64628;50.104;14.614;2023-06-22T01:20:47;13;11;
75946;PMS5003;64628;50.104;14.614;2023-06-22T01:23:16;14;13;
75946;PMS5003;64628;50.104;14.614;2023-06-22T01:25:43;16;14;
75946;PMS5003;64628;50.104;14.614;2023-06-22T01:28:05;15;12;
75946;PMS5003;64628;50.104;14.614;2023-06-22T01:30:29;16;14;
75946;PMS5003;64628;50.104;14.614;2023-06-22T01:32:54;19;17;
75946;PMS5003;64628;50.104;14.614;2023-06-22T01:35:19;12;11;
75946;PMS5003;64628;50.104;14.614;2023-06-22T01:37:45;12;12;
75946;PMS5003;64628;50.104;14.614;2023-06-22T01:40:10;11;11;
75946;PMS5003;64628;50.104;14.614;2023-06-22T01:42:35;15;12;
75946;PMS5003;64628;50.104;14.614;2023-06-22T01:45:00;12;12;
75946;PMS5003;64628;50.104;14.614;2023-06-22T01:47:26;12;11;
75946;PMS5003;64628;50.104;14.614;2023-06-22T01:49:51;15;14;
75946;PMS5003;64628;50.104;14.614;2023-06-22T01:52:16;13;11;
75946;PMS5003;64628;50.104;14.614;2023-06-22T01:54:41;16;14;
75946;PMS5003;64628;50.104;14.614;2023-06-22T01:57:07;14;13;
75946;PMS5003;64628;50.104;14.614;2023-06-22T01:59:34;12;12;
75946;PMS5003;64628;50.104;14.614;2023-06-22T02:02:00;15;15;
75946;PMS5003;64628;50.104;14.614;2023-06-22T02:04:24;15;15;
75946;PMS5003;64628;50.104;14.614;2023-06-22T02:06:49;15;13;
75946;PMS5003;64628;50.104;14.614;2023-06-22T02:09:15;15;15;
75946;PMS5003;64628;50.104;14.614;2023-06-22T02:11:39;15;15;
75946;PMS5003;64628;50.104;14.614;2023-06-22T02:14:05;16;16;
75946;PMS5003;64628;50.104;14.614;2023-06-22T02:16:31;17;16;
75946;PMS5003;64628;50.104;14.614;2023-06-22T02:18:55;16;16;
75946;PMS5003;64628;50.104;14.614;2023-06-22T02:21:21;14;14;
75946;PMS5003;64628;50.104;14.614;2023-06-22T02:23:46;20;19;
75946;PMS5003;64628;50.104;14.614;2023-06-22T02:26:11;15;15;
75946;PMS5003;64628;50.104;14.614;2023-06-22T02:28:36;16;15;
75946;PMS5003;64628;50.104;14.614;2023-06-22T02:31:02;18;17;
75946;PMS5003;64628;50.104;14.614;2023-06-22T02:33:28;16;14;
75946;PMS5003;64628;50.104;14.614;2023-06-22T02:35:53;14;13;
75946;PMS5003;64628;50.104;14.614;2023-06-22T02:38:18;14;12;
75946;PMS5003;64628;50.104;14.614;2023-06-22T02:40:43;17;17;
75946;PMS5003;64628;50.104;14.614;2023-06-22T02:43:09;17;16;
75946;PMS5003;64628;50.104;14.614;2023-06-22T02:45:34;16;14;
75946;PMS5003;64628;50.104;14.614;2023-06-22T02:47:59;21;15;
75946;PMS5003;64628;50.104;14.614;2023-06-22T02:50:25;19;17;
75946;PMS5003;64628;50.104;14.614;2023-06-22T02:52:50;21;19;
75946;PMS5003;64628;50.104;14.614;2023-06-22T02:55:16;14;13;
75946;PMS5003;64628;50.104;14.614;2023-06-22T02:57:41;20;19;
75946;PMS5003;64628;50.104;14.614;2023-06-22T03:00:07;15;13;
75946;PMS5003;64628;50.104;14.614;2023-06-22T03:02:32;22;20;
75946;PMS5003;64628;50.104;14.614;2023-06-22T03:04:58;15;14;
75946;PMS5003;64628;50.104;14.614;2023-06-22T03:07:23;15;14;
75946;PMS5003;64628;50.104;14.614;2023-06-22T03:09:48;17;16;
75946;PMS5003;64628;50.104;14.614;2023-06-22T03:12:14;17;14;
75946;PMS5003;64628;50.104;14.614;2023-06-22T03:14:39;18;15;
75946;PMS5003;64628;50.104;14.614;2023-06-22T03:17:04;14;14;
75946;PMS5003;64628;50.104;14.614;2023-06-22T03:19:30;16;14;
75946;PMS5003;64628;50.104;14.614;2023-06-22T03:21:55;20;19;
75946;PMS5003;64628;50.104;14.614;2023-06-22T03:24:20;17;16;
75946;PMS5003;64628;50.104;14.614;2023-06-22T03:26:46;17;15;
75946;PMS5003;64628;50.104;14.614;2023-06-22T03:29:12;20;19;
75946;PMS5003;64628;50.104;14.614;2023-06-22T03:31:37;14;13;
75946;PMS5003;64628;50.104;14.614;2023-06-22T03:34:02;19;16;
75946;PMS5003;64628;50.104;14.614;2023-06-22T03:36:27;20;18;
75946;PMS5003;64628;50.104;14.614;2023-06-22T03:38:53;12;12;
75946;PMS5003;64628;50.104;14.614;2023-06-22T03:41:18;16;16;
75946;PMS5003;64628;50.104;14.614;2023-06-22T03:43:43;18;17;
75946;PMS5003;64628;50.104;14.614;2023-06-22T03:46:08;17;16;
75946;PMS5003;64628;50.104;14.614;2023-06-22T03:48:33;20;20;
75946;PMS5003;64628;50.104;14.614;2023-06-22T03:50:59;19;18;
75946;PMS5003;64628;50.104;14.614;2023-06-22T03:53:23;21;18;
75946;PMS5003;64628;50.104;14.614;2023-06-22T03:55:49;17;17;
75946;PMS5003;64628;50.104;14.614;2023-06-22T03:58:14;18;16;
75946;PMS5003;64628;50.104;14.614;2023-06-22T04:00:39;15;14;
75946;PMS5003;64628;50.104;14.614;2023-06-22T04:03:04;18;18;
75946;PMS5003;64628;50.104;14.614;2023-06-22T04:05:29;18;17;
75946;PMS5003;64628;50.104;14.614;2023-06-22T04:07:55;21;18;
75946;PMS5003;64628;50.104;14.614;2023-06-22T04:10:21;17;16;
75946;PMS5003;64628;50.104;14.614;2023-06-22T04:12:46;17;17;
75946;PMS5003;64628;50.104;14.614;2023-06-22T04:15:11;18;18;
75946;PMS5003;64628;50.104;14.614;2023-06-22T04:17:37;19;19;
75946;PMS5003;64628;50.104;14.614;2023-06-22T04:20:02;17;15;
75946;PMS5003;64628;50.104;14.614;2023-06-22T04:22:27;19;19;
75946;PMS5003;64628;50.104;14.614;2023-06-22T04:24:53;18;18;
75946;PMS5003;64628;50.104;14.614;2023-06-22T04:27:19;26;23;
75946;PMS5003;64628;50.104;14.614;2023-06-22T04:29:44;23;21;
75946;PMS5003;64628;50.104;14.614;2023-06-22T04:32:09;20;19;
75946;PMS5003;64628;50.104;14.614;2023-06-22T04:34:34;20;19;
75946;PMS5003;64628;50.104;14.614;2023-06-22T04:36:59;29;23;
75946;PMS5003;64628;50.104;14.614;2023-06-22T04:39:25;26;23;
75946;PMS5003;64628;50.104;14.614;2023-06-22T04:41:51;24;24;
75946;PMS5003;64628;50.104;14.614;2023-06-22T04:44:17;23;22;
75946;PMS5003;64628;50.104;14.614;2023-06-22T04:46:41;21;19;
75946;PMS5003;64628;50.104;14.614;2023-06-22T04:49:06;20;20;
75946;PMS5003;64628;50.104;14.614;2023-06-22T04:51:32;27;24;
75946;PMS5003;64628;50.104;14.614;2023-06-22T04:53:58;20;17;
75946;PMS5003;64628;50.104;14.614;2023-06-22T04:56:23;25;25;
75946;PMS5003;64628;50.104;14.614;2023-06-22T04:58:49;26;25;
75946;PMS5003;64628;50.104;14.614;2023-06-22T05:01:14;29;22;
75946;PMS5003;64628;50.104;14.614;2023-06-22T05:03:40;29;28;
75946;PMS5003;64628;50.104;14.614;2023-06-22T05:06:05;30;29;
75946;PMS5003;64628;50.104;14.614;2023-06-22T05:08:31;29;26;
75946;PMS5003;64628;50.104;14.614;2023-06-22T05:10:56;22;22;
75946;PMS5003;64628;50.104;14.614;2023-06-22T05:13:22;31;29;
75946;PMS5003;64628;50.104;14.614;2023-06-22T05:15:47;26;24;
75946;PMS5003;64628;50.104;14.614;2023-06-22T05:18:12;27;25;
75946;PMS5003;64628;50.104;14.614;2023-06-22T05:20:39;25;24;
75946;PMS5003;64628;50.104;14.614;2023-06-22T05:23:04;30;28;
75946;PMS5003;64628;50.104;14.614;2023-06-22T05:25:29;27;27;
75946;PMS5003;64628;50.104;14.614;2023-06-22T05:27:55;33;29;
75946;PMS5003;64628;50.104;14.614;2023-06-22T05:30:20;30;29;
75946;PMS5003;64628;50.104;14.614;2023-06-22T05:32:45;27;26;
75946;PMS5003;64628;50.104;14.614;2023-06-22T05:35:11;33;30;
75946;PMS5003;64628;50.104;14.614;2023-06-22T05:37:36;31;31;
75946;PMS5003;64628;50.104;14.614;2023-06-22T05:40:02;31;26;
75946;PMS5003;64628;50.104;14.614;2023-06-22T05:42:28;27;27;
75946;PMS5003;64628;50.104;14.614;2023-06-22T05:44:53;29;28;
75946;PMS5003;64628;50.104;14.614;2023-06-22T05:47:18;34;33;
75946;PMS5003;64628;50.104;14.614;2023-06-22T05:49:44;27;24;
75946;PMS5003;64628;50.104;14.614;2023-06-22T05:52:09;31;29;
75946;PMS5003;64628;50.104;14.614;2023-06-22T05:54:35;42;36;
75946;PMS5003;64628;50.104;14.614;2023-06-22T05:57:00;33;31;
75946;PMS5003;64628;50.104;14.614;2023-06-22T05:59:26;38;34;
75946;PMS5003;64628;50.104;14.614;2023-06-22T06:01:51;33;32;
75946;PMS5003;64628;50.104;14.614;2023-06-22T06:04:17;26;26;
75946;PMS5003;64628;50.104;14.614;2023-06-22T06:06:42;30;25;
75946;PMS5003;64628;50.104;14.614;2023-06-22T06:09:08;36;29;
75946;PMS5003;64628;50.104;14.614;2023-06-22T06:11:34;32;29;
75946;PMS5003;64628;50.104;14.614;2023-06-22T06:13:59;32;28;
75946;PMS5003;64628;50.104;14.614;2023-06-22T06:16:24;29;28;
75946;PMS5003;64628;50.104;14.614;2023-06-22T06:18:49;25;25;
75946;PMS5003;64628;50.104;14.614;2023-06-22T06:21:14;33;30;
75946;PMS5003;64628;50.104;14.614;2023-06-22T06:23:40;26;25;
75946;PMS5003;64628;50.104;14.614;2023-06-22T06:26:06;29;26;
75946;PMS5003;64628;50.104;14.614;2023-06-22T06:28:31;34;29;
75946;PMS5003;64628;50.104;14.614;2023-06-22T06:30:57;24;24;
75946;PMS5003;64628;50.104;14.614;2023-06-22T06:33:23;32;28;
75946;PMS5003;64628;50.104;14.614;2023-06-22T06:35:48;26;26;
75946;PMS5003;64628;50.104;14.614;2023-06-22T06:38:14;30;27;
75946;PMS5003;64628;50.104;14.614;2023-06-22T06:40:40;35;33;
75946;PMS5003;64628;50.104;14.614;2023-06-22T06:43:05;25;24;
75946;PMS5003;64628;50.104;14.614;2023-06-22T06:45:31;27;25;
75946;PMS5003;64628;50.104;14.614;2023-06-22T06:47:57;31;28;
75946;PMS5003;64628;50.104;14.614;2023-06-22T06:50:22;29;28;
75946;PMS5003;64628;50.104;14.614;2023-06-22T06:52:47;32;29;
75946;PMS5003;64628;50.104;14.614;2023-06-22T06:55:13;24;24;
75946;PMS5003;64628;50.104;14.614;2023-06-22T06:57:40;30;30;
75946;PMS5003;64628;50.104;14.614;2023-06-22T07:00:05;27;27;
75946;PMS5003;64628;50.104;14.614;2023-06-22T07:02:30;30;26;
75946;PMS5003;64628;50.104;14.614;2023-06-22T07:04:56;26;24;
75946;PMS5003;64628;50.104;14.614;2023-06-22T07:07:21;30;27;
75946;PMS5003;64628;50.104;14.614;2023-06-22T07:09:47;30;25;
75946;PMS5003;64628;50.104;14.614;2023-06-22T07:12:12;35;35;
75946;PMS5003;64628;50.104;14.614;2023-06-22T07:14:37;28;24;
75946;PMS5003;64628;50.104;14.614;2023-06-22T07:17:03;27;26;
75946;PMS5003;64628;50.104;14.614;2023-06-22T07:19:28;33;30;
75946;PMS5003;64628;50.104;14.614;2023-06-22T07:21:54;25;25;
75946;PMS5003;64628;50.104;14.614;2023-06-22T07:24:20;29;27;
75946;PMS5003;64628;50.104;14.614;2023-06-22T07:26:45;24;21;
75946;PMS5003;64628;50.104;14.614;2023-06-22T07:29:10;21;20;
75946;PMS5003;64628;50.104;14.614;2023-06-22T07:31:36;21;19;
75946;PMS5003;64628;50.104;14.614;2023-06-22T07:34:01;25;22;
75946;PMS5003;64628;50.104;14.614;2023-06-22T07:36:27;28;28;
75946;PMS5003;64628;50.104;14.614;2023-06-22T07:38:52;19;19;
75946;PMS5003;64628;50.104;14.614;2023-06-22T07:41:18;27;26;
75946;PMS5003;64628;50.104;14.614;2023-06-22T07:43:43;26;26;
75946;PMS5003;64628;50.104;14.614;2023-06-22T07:46:08;25;23;
75946;PMS5003;64628;50.104;14.614;2023-06-22T07:48:36;19;19;
75946;PMS5003;64628;50.104;14.614;2023-06-22T07:50:59;26;25;
75946;PMS5003;64628;50.104;14.614;2023-06-22T07:53:24;22;22;
75946;PMS5003;64628;50.104;14.614;2023-06-22T07:55:50;24;22;
75946;PMS5003;64628;50.104;14.614;2023-06-22T07:58:15;25;23;
75946;PMS5003;64628;50.104;14.614;2023-06-22T08:00:41;25;23;
75946;PMS5003;64628;50.104;14.614;2023-06-22T08:03:06;21;19;
75946;PMS5003;64628;50.104;14.614;2023-06-22T08:05:32;23;22;
75946;PMS5003;64628;50.104;14.614;2023-06-22T08:07:57;28;26;
75946;PMS5003;64628;50.104;14.614;2023-06-22T08:10:22;17;17;
75946;PMS5003;64628;50.104;14.614;2023-06-22T08:12:47;25;24;
75946;PMS5003;64628;50.104;14.614;2023-06-22T08:15:13;24;23;
75946;PMS5003;64628;50.104;14.614;2023-06-22T08:17:38;21;19;
75946;PMS5003;64628;50.104;14.614;2023-06-22T08:20:04;21;21;
75946;PMS5003;64628;50.104;14.614;2023-06-22T08:22:29;24;21;
75946;PMS5003;64628;50.104;14.614;2023-06-22T08:24:54;24;21;
75946;PMS5003;64628;50.104;14.614;2023-06-22T08:27:20;23;23;
75946;PMS5003;64628;50.104;14.614;2023-06-22T08:29:45;23;20;
75946;PMS5003;64628;50.104;14.614;2023-06-22T08:32:11;26;24;
75946;PMS5003;64628;50.104;14.614;2023-06-22T08:34:36;28;26;
75946;PMS5003;64628;50.104;14.614;2023-06-22T08:37:01;23;23;
75946;PMS5003;64628;50.104;14.614;2023-06-22T08:39:27;28;25;
75946;PMS5003;64628;50.104;14.614;2023-06-22T08:41:53;22;22;
75946;PMS5003;64628;50.104;14.614;2023-06-22T08:44:19;19;19;
75946;PMS5003;64628;50.104;14.614;2023-06-22T08:46:44;26;24;
75946;PMS5003;64628;50.104;14.614;2023-06-22T08:49:09;26;25;
75946;PMS5003;64628;50.104;14.614;2023-06-22T08:51:35;24;23;
75946;PMS5003;64628;50.104;14.614;2023-06-22T08:54:00;29;27;
75946;PMS5003;64628;50.104;14.614;2023-06-22T08:56:26;22;22;
75946;PMS5003;64628;50.104;14.614;2023-06-22T08:58:52;25;25;
75946;PMS5003;64628;50.104;14.614;2023-06-22T09:01:17;27;27;
75946;PMS5003;64628;50.104;14.614;2023-06-22T09:03:43;26;22;
75946;PMS5003;64628;50.104;14.614;2023-06-22T09:06:09;31;26;
75946;PMS5003;64628;50.104;14.614;2023-06-22T09:08:35;21;21;
75946;PMS5003;64628;50.104;14.614;2023-06-22T09:11:05;21;21;
75946;PMS5003;64628;50.104;14.614;2023-06-22T09:13:26;25;24;
75946;PMS5003;64628;50.104;14.614;2023-06-22T09:15:51;25;25;
75946;PMS5003;64628;50.104;14.614;2023-06-22T09:18:16;24;23;
75946;PMS5003;64628;50.104;14.614;2023-06-22T09:20:42;24;20;
75946;PMS5003;64628;50.104;14.614;2023-06-22T09:23:08;23;22;
75946;PMS5003;64628;50.104;14.614;2023-06-22T09:25:33;24;24;
75946;PMS5003;64628;50.104;14.614;2023-06-22T09:27:58;26;26;
75946;PMS5003;64628;50.104;14.614;2023-06-22T09:30:24;22;21;
75946;PMS5003;64628;50.104;14.614;2023-06-22T09:32:49;27;27;
75946;PMS5003;64628;50.104;14.614;2023-06-22T09:35:15;24;22;
75946;PMS5003;64628;50.104;14.614;2023-06-22T09:37:40;24;22;
75946;PMS5003;64628;50.104;14.614;2023-06-22T09:40:06;26;26;
75946;PMS5003;64628;50.104;14.614;2023-06-22T09:42:32;27;26;
75946;PMS5003;64628;50.104;14.614;2023-06-22T09:44:57;22;22;
75946;PMS5003;64628;50.104;14.614;2023-06-22T09:47:23;23;23;
75946;PMS5003;64628;50.104;14.614;2023-06-22T09:49:48;31;30;
75946;PMS5003;64628;50.104;14.614;2023-06-22T09:52:13;27;24;
75946;PMS5003;64628;50.104;14.614;2023-06-22T09:54:39;21;20;
75946;PMS5003;64628;50.104;14.614;2023-06-22T09:57:05;25;23;
75946;PMS5003;64628;50.104;14.614;2023-06-22T09:59:30;27;26;
75946;PMS5003;64628;50.104;14.614;2023-06-22T10:01:56;24;23;
75946;PMS5003;64628;50.104;14.614;2023-06-22T10:04:21;24;23;
75946;PMS5003;64628;50.104;14.614;2023-06-22T10:06:47;24;21;
75946;PMS5003;64628;50.104;14.614;2023-06-22T10:09:13;25;23;
75946;PMS5003;64628;50.104;14.614;2023-06-22T10:11:38;21;20;
75946;PMS5003;64628;50.104;14.614;2023-06-22T10:14:03;22;21;
75946;PMS5003;64628;50.104;14.614;2023-06-22T10:16:31;23;23;
75946;PMS5003;64628;50.104;14.614;2023-06-22T10:18:55;24;22;
75946;PMS5003;64628;50.104;14.614;2023-06-22T10:21:20;23;22;
75946;PMS5003;64628;50.104;14.614;2023-06-22T10:23:46;22;21;
75946;PMS5003;64628;50.104;14.614;2023-06-22T10:26:11;21;20;
75946;PMS5003;64628;50.104;14.614;2023-06-22T10:28:36;28;24;
75946;PMS5003;64628;50.104;14.614;2023-06-22T10:31:02;29;28;
75946;PMS5003;64628;50.104;14.614;2023-06-22T10:33:27;22;20;
75946;PMS5003;64628;50.104;14.614;2023-06-22T10:35:53;20;18;
75946;PMS5003;64628;50.104;14.614;2023-06-22T10:38:18;22;20;
75946;PMS5003;64628;50.104;14.614;2023-06-22T10:40:43;21;21;
75946;PMS5003;64628;50.104;14.614;2023-06-22T10:43:08;25;24;
75946;PMS5003;64628;50.104;14.614;2023-06-22T10:45:34;22;22;
75946;PMS5003;64628;50.104;14.614;2023-06-22T10:47:59;24;23;
75946;PMS5003;64628;50.104;14.614;2023-06-22T10:50:25;21;20;
75946;PMS5003;64628;50.104;14.614;2023-06-22T10:52:50;25;25;
75946;PMS5003;64628;50.104;14.614;2023-06-22T10:55:16;25;23;
75946;PMS5003;64628;50.104;14.614;2023-06-22T10:57:41;22;22;
75946;PMS5003;64628;50.104;14.614;2023-06-22T11:00:07;24;24;
75946;PMS5003;64628;50.104;14.614;2023-06-22T11:02:33;21;21;
75946;PMS5003;64628;50.104;14.614;2023-06-22T11:04:58;28;25;
75946;PMS5003;64628;50.104;14.614;2023-06-22T11:07:24;27;26;
75946;PMS5003;64628;50.104;14.614;2023-06-22T11:09:49;26;25;
75946;PMS5003;64628;50.104;14.614;2023-06-22T11:12:15;22;21;
75946;PMS5003;64628;50.104;14.614;2023-06-22T11:14:40;20;19;
75946;PMS5003;64628;50.104;14.614;2023-06-22T11:17:06;20;20;
75946;PMS5003;64628;50.104;14.614;2023-06-22T11:19:32;25;21;
75946;PMS5003;64628;50.104;14.614;2023-06-22T11:21:57;22;20;
75946;PMS5003;64628;50.104;14.614;2023-06-22T11:24:22;26;26;
75946;PMS5003;64628;50.104;14.614;2023-06-22T11:26:47;22;19;
75946;PMS5003;64628;50.104;14.614;2023-06-22T11:29:13;22;22;
75946;PMS5003;64628;50.104;14.614;2023-06-22T11:31:38;28;22;
75946;PMS5003;64628;50.104;14.614;2023-06-22T11:34:04;27;26;
75946;PMS5003;64628;50.104;14.614;2023-06-22T11:36:29;23;22;
75946;PMS5003;64628;50.104;14.614;2023-06-22T11:38:55;25;25;
75946;PMS5003;64628;50.104;14.614;2023-06-22T11:41:20;26;25;
75946;PMS5003;64628;50.104;14.614;2023-06-22T11:43:45;26;24;
75946;PMS5003;64628;50.104;14.614;2023-06-22T11:46:11;27;24;
75946;PMS5003;64628;50.104;14.614;2023-06-22T11:48:37;20;20;
75946;PMS5003;64628;50.104;14.614;2023-06-22T11:51:03;23;21;
75946;PMS5003;64628;50.104;14.614;2023-06-22T11:53:28;18;17;
75946;PMS5003;64628;50.104;14.614;2023-06-22T11:55:53;27;26;
75946;PMS5003;64628;50.104;14.614;2023-06-22T11:58:19;26;26;
75946;PMS5003;64628;50.104;14.614;2023-06-22T12:00:44;25;22;
75946;PMS5003;64628;50.104;14.614;2023-06-22T12:03:09;21;20;
75946;PMS5003;64628;50.104;14.614;2023-06-22T12:05:34;25;25;
75946;PMS5003;64628;50.104;14.614;2023-06-22T12:08:00;23;23;
75946;PMS5003;64628;50.104;14.614;2023-06-22T12:10:26;29;26;
75946;PMS5003;64628;50.104;14.614;2023-06-22T12:12:51;29;25;
75946;PMS5003;64628;50.104;14.614;2023-06-22T12:15:17;30;30;
75946;PMS5003;64628;50.104;14.614;2023-06-22T12:17:43;26;22;
75946;PMS5003;64628;50.104;14.614;2023-06-22T12:20:08;25;23;
75946;PMS5003;64628;50.104;14.614;2023-06-22T12:22:34;24;23;
75946;PMS5003;64628;50.104;14.614;2023-06-22T12:25:00;24;22;
75946;PMS5003;64628;50.104;14.614;2023-06-22T12:27:25;23;22;
75946;PMS5003;64628;50.104;14.614;2023-06-22T12:29:50;26;25;
75946;PMS5003;64628;50.104;14.614;2023-06-22T12:32:16;23;23;
75946;PMS5003;64628;50.104;14.614;2023-06-22T12:34:41;24;23;
75946;PMS5003;64628;50.104;14.614;2023-06-22T12:37:06;26;25;
75946;PMS5003;64628;50.104;14.614;2023-06-22T12:39:32;24;22;
75946;PMS5003;64628;50.104;14.614;2023-06-22T12:41:57;25;23;
75946;PMS5003;64628;50.104;14.614;2023-06-22T12:44:23;31;31;
75946;PMS5003;64628;50.104;14.614;2023-06-22T12:46:48;26;23;
75946;PMS5003;64628;50.104;14.614;2023-06-22T12:49:14;27;26;
75946;PMS5003;64628;50.104;14.614;2023-06-22T12:51:40;27;26;
75946;PMS5003;64628;50.104;14.614;2023-06-22T12:54:05;31;29;
75946;PMS5003;64628;50.104;14.614;2023-06-22T12:56:31;29;28;
75946;PMS5003;64628;50.104;14.614;2023-06-22T12:58:57;29;27;
75946;PMS5003;64628;50.104;14.614;2023-06-22T13:01:23;25;25;
75946;PMS5003;64628;50.104;14.614;2023-06-22T13:03:48;26;22;
75946;PMS5003;64628;50.104;14.614;2023-06-22T13:06:13;29;28;
75946;PMS5003;64628;50.104;14.614;2023-06-22T13:08:39;27;26;
75946;PMS5003;64628;50.104;14.614;2023-06-22T13:11:04;28;26;
75946;PMS5003;64628;50.104;14.614;2023-06-22T13:13:29;28;27;
75946;PMS5003;64628;50.104;14.614;2023-06-22T13:15:55;26;26;
75946;PMS5003;64628;50.104;14.614;2023-06-22T13:18:20;31;31;
75946;PMS5003;64628;50.104;14.614;2023-06-22T13:20:45;26;26;
75946;PMS5003;64628;50.104;14.614;2023-06-22T13:23:10;31;29;
75946;PMS5003;64628;50.104;14.614;2023-06-22T13:25:36;28;25;
75946;PMS5003;64628;50.104;14.614;2023-06-22T13:28:02;22;22;
75946;PMS5003;64628;50.104;14.614;2023-06-22T13:30:27;30;27;
75946;PMS5003;64628;50.104;14.614;2023-06-22T13:32:52;31;28;
75946;PMS5003;64628;50.104;14.614;2023-06-22T13:35:18;24;23;
75946;PMS5003;64628;50.104;14.614;2023-06-22T13:37:43;26;25;
75946;PMS5003;64628;50.104;14.614;2023-06-22T13:40:09;27;24;
75946;PMS5003;64628;50.104;14.614;2023-06-22T13:42:33;23;23;
75946;PMS5003;64628;50.104;14.614;2023-06-22T13:44:59;22;21;
75946;PMS5003;64628;50.104;14.614;2023-06-22T13:47:24;32;30;
75946;PMS5003;64628;50.104;14.614;2023-06-22T13:49:49;26;26;
75946;PMS5003;64628;50.104;14.614;2023-06-22T13:52:14;24;23;
75946;PMS5003;64628;50.104;14.614;2023-06-22T13:54:40;22;22;
75946;PMS5003;64628;50.104;14.614;2023-06-22T13:57:06;24;22;
75946;PMS5003;64628;50.104;14.614;2023-06-22T13:59:31;20;19;
75946;PMS5003;64628;50.104;14.614;2023-06-22T14:01:56;26;25;
75946;PMS5003;64628;50.104;14.614;2023-06-22T14:04:22;23;22;
75946;PMS5003;64628;50.104;14.614;2023-06-22T14:06:47;18;18;
75946;PMS5003;64628;50.104;14.614;2023-06-22T14:09:12;20;20;
75946;PMS5003;64628;50.104;14.614;2023-06-22T14:11:38;23;22;
75946;PMS5003;64628;50.104;14.614;2023-06-22T14:14:03;21;20;
75946;PMS5003;64628;50.104;14.614;2023-06-22T14:16:28;20;20;
75946;PMS5003;64628;50.104;14.614;2023-06-22T14:18:54;23;21;
75946;PMS5003;64628;50.104;14.614;2023-06-22T14:21:19;23;22;
75946;PMS5003;64628;50.104;14.614;2023-06-22T14:23:45;25;21;
75946;PMS5003;64628;50.104;14.614;2023-06-22T14:26:10;24;22;
75946;PMS5003;64628;50.104;14.614;2023-06-22T14:28:36;30;25;
75946;PMS5003;64628;50.104;14.614;2023-06-22T14:31:01;28;24;
75946;PMS5003;64628;50.104;14.614;2023-06-22T14:33:26;27;24;
75946;PMS5003;64628;50.104;14.614;2023-06-22T14:35:52;25;22;
75946;PMS5003;64628;50.104;14.614;2023-06-22T14:38:17;22;22;
75946;PMS5003;64628;50.104;14.614;2023-06-22T14:40:43;20;18;
75946;PMS5003;64628;50.104;14.614;2023-06-22T14:43:08;22;22;
75946;PMS5003;64628;50.104;14.614;2023-06-22T14:45:34;26;21;
75946;PMS5003;64628;50.104;14.614;2023-06-22T14:47:59;24;22;
75946;PMS5003;64628;50.104;14.614;2023-06-22T14:50:25;22;20;
75946;PMS5003;64628;50.104;14.614;2023-06-22T14:52:50;23;22;
75946;PMS5003;64628;50.104;14.614;2023-06-22T14:55:15;24;24;
75946;PMS5003;64628;50.104;14.614;2023-06-22T14:57:41;23;19;
75946;PMS5003;64628;50.104;14.614;2023-06-22T15:00:07;21;19;
75946;PMS5003;64628;50.104;14.614;2023-06-22T15:02:32;22;21;
75946;PMS5003;64628;50.104;14.614;2023-06-22T15:04:58;26;24;
75946;PMS5003;64628;50.104;14.614;2023-06-22T15:07:23;21;20;
75946;PMS5003;64628;50.104;14.614;2023-06-22T15:09:48;17;17;
75946;PMS5003;64628;50.104;14.614;2023-06-22T15:12:14;22;22;
75946;PMS5003;64628;50.104;14.614;2023-06-22T15:14:39;25;24;
75946;PMS5003;64628;50.104;14.614;2023-06-22T15:17:05;23;22;
75946;PMS5003;64628;50.104;14.614;2023-06-22T15:19:30;27;27;
75946;PMS5003;64628;50.104;14.614;2023-06-22T15:21:56;23;23;
75946;PMS5003;64628;50.104;14.614;2023-06-22T15:24:21;23;22;
75946;PMS5003;64628;50.104;14.614;2023-06-22T15:26:46;25;24;
75946;PMS5003;64628;50.104;14.614;2023-06-22T15:29:12;22;20;
75946;PMS5003;64628;50.104;14.614;2023-06-22T15:31:37;20;20;
75946;PMS5003;64628;50.104;14.614;2023-06-22T15:34:03;24;23;
75946;PMS5003;64628;50.104;14.614;2023-06-22T15:36:28;26;25;
75946;PMS5003;64628;50.104;14.614;2023-06-22T15:38:54;26;25;
75946;PMS5003;64628;50.104;14.614;2023-06-22T15:41:19;22;21;
75946;PMS5003;64628;50.104;14.614;2023-06-22T15:43:45;23;23;
75946;PMS5003;64628;50.104;14.614;2023-06-22T15:46:10;25;22;
75946;PMS5003;64628;50.104;14.614;2023-06-22T15:48:35;25;24;